createdAt,value
2023-04-26T00:02:00.921Z,10.97
2023-04-26T00:04:29.735Z,10.17
2023-04-26T00:06:57.154Z,11.27
2023-04-26T00:09:28.813Z,13.87
2023-04-26T00:11:55.771Z,9.77
2023-04-26T00:14:22.787Z,10.57
2023-04-26T00:16:50.135Z,12.13
2023-04-26T00:19:20.122Z,9.63
2023-04-26T00:21:46.867Z,11.97
2023-04-26T00:24:13.710Z,13.10
2023-04-26T00:26:43.022Z,10.17
2023-04-26T00:29:14.624Z,16.23
2023-04-26T00:31:41.541Z,10.57
2023-04-26T00:34:08.465Z,12.70
2023-04-26T00:36:35.513Z,13.30
2023-04-26T00:39:02.979Z,18.03
2023-04-26T00:41:30.142Z,14.60
2023-04-26T00:43:59.372Z,13.97
2023-04-26T00:46:26.712Z,9.37
2023-04-26T00:48:56.266Z,13.23
2023-04-26T00:51:23.122Z,10.67
2023-04-26T00:53:50.040Z,9.37
2023-04-26T00:56:17.013Z,14.90
2023-04-26T00:58:43.912Z,12.50
2023-04-26T01:01:15.563Z,16.03
2023-04-26T01:03:47.079Z,13.73
2023-04-26T01:06:14.332Z,14.87
2023-04-26T01:08:43.948Z,12.40
2023-04-26T01:11:11.066Z,11.13
2023-04-26T01:13:38.839Z,12.20
2023-04-26T01:16:08.241Z,12.13
2023-04-26T01:18:36.132Z,14.53
2023-04-26T01:21:05.220Z,13.37
2023-04-26T01:23:32.332Z,12.63
2023-04-26T01:26:01.853Z,15.67
2023-04-26T01:28:28.854Z,10.37
2023-04-26T01:30:55.736Z,13.27
2023-04-26T01:33:22.727Z,14.67
2023-04-26T01:35:49.833Z,12.47
2023-04-26T01:38:21.976Z,14.70
2023-04-26T01:40:48.779Z,14.17
2023-04-26T01:43:16.692Z,11.87
2023-04-26T01:45:49.584Z,8.97
2023-04-26T01:48:16.852Z,15.43
2023-04-26T01:50:43.868Z,15.00
2023-04-26T01:53:10.689Z,15.33
2023-04-26T01:55:37.458Z,15.83
2023-04-26T01:58:04.323Z,14.83
2023-04-26T02:00:31.307Z,15.07
2023-04-26T02:03:01.139Z,16.23
2023-04-26T02:05:28.341Z,13.43
2023-04-26T02:07:55.355Z,13.40
2023-04-26T02:10:22.198Z,14.47
2023-04-26T02:12:49.166Z,13.93
2023-04-26T02:15:22.085Z,14.60
2023-04-26T02:17:49.906Z,25.63
2023-04-26T02:20:16.973Z,16.43
2023-04-26T02:22:43.918Z,13.53
2023-04-26T02:25:13.379Z,12.03
2023-04-26T02:27:40.308Z,12.57
2023-04-26T02:30:11.782Z,10.40
2023-04-26T02:32:38.867Z,10.67
2023-04-26T02:35:06.206Z,16.73
2023-04-26T02:37:34.291Z,13.00
2023-04-26T02:40:01.256Z,11.70
2023-04-26T02:42:28.262Z,18.47
2023-04-26T02:44:57.905Z,12.20
2023-04-26T02:47:27.335Z,13.33
2023-04-26T02:49:57.233Z,16.07
2023-04-26T02:52:24.036Z,17.23
2023-04-26T02:54:51.270Z,13.57
2023-04-26T02:57:21.089Z,14.50
2023-04-26T02:59:47.883Z,11.40
2023-04-26T03:02:15.216Z,14.27
2023-04-26T03:04:42.200Z,15.90
2023-04-26T03:07:09.838Z,13.27
2023-04-26T03:09:41.539Z,13.23
2023-04-26T03:12:09.622Z,8.83
2023-04-26T03:14:37.435Z,12.40
2023-04-26T03:17:07.965Z,11.23
2023-04-26T03:19:38.083Z,11.97
2023-04-26T03:22:05.130Z,16.80
2023-04-26T03:24:34.355Z,15.43
2023-04-26T03:27:01.332Z,16.40
2023-04-26T03:29:28.252Z,15.23
2023-04-26T03:31:55.692Z,14.07
2023-04-26T03:34:22.538Z,13.07
2023-04-26T03:36:49.232Z,15.40
2023-04-26T03:39:18.562Z,20.73
2023-04-26T03:41:45.457Z,17.03
2023-04-26T03:44:12.593Z,15.00
2023-04-26T03:46:39.345Z,16.20
2023-04-26T03:49:06.352Z,13.00
2023-04-26T03:51:33.224Z,13.43
2023-04-26T03:54:00.128Z,11.13
2023-04-26T03:56:27.059Z,15.47
2023-04-26T03:58:54.158Z,15.57
2023-04-26T04:01:21.320Z,15.03
2023-04-26T04:03:48.375Z,18.90
2023-04-26T04:06:16.945Z,15.10
2023-04-26T04:08:43.848Z,20.17
2023-04-26T04:11:12.854Z,14.23
2023-04-26T04:13:39.562Z,12.70
2023-04-26T04:16:07.218Z,14.87
2023-04-26T04:18:34.206Z,15.97
2023-04-26T04:21:01.028Z,14.30
2023-04-26T04:23:28.096Z,12.37
2023-04-26T04:25:54.879Z,16.83
2023-04-26T04:28:23.315Z,16.47
2023-04-26T04:30:50.314Z,16.93
2023-04-26T04:33:17.936Z,17.63
2023-04-26T04:35:45.273Z,15.90
2023-04-26T04:38:14.380Z,18.03
2023-04-26T04:40:45.943Z,13.70
2023-04-26T04:43:13.247Z,12.93
2023-04-26T04:45:39.898Z,18.13
2023-04-26T04:48:07.176Z,14.70
2023-04-26T04:50:37.268Z,14.93
2023-04-26T04:53:06.652Z,15.57
2023-04-26T04:55:36.783Z,17.57
2023-04-26T04:58:04.731Z,22.23
2023-04-26T05:00:31.488Z,25.20
2023-04-26T05:03:00.516Z,16.83
2023-04-26T05:05:27.483Z,16.50
2023-04-26T05:07:54.402Z,19.08
2023-04-26T05:10:23.769Z,17.38
2023-04-26T05:12:50.743Z,16.15
2023-04-26T05:15:17.968Z,16.38
2023-04-26T05:17:47.218Z,16.73
2023-04-26T05:20:15.046Z,14.88
2023-04-26T05:22:41.953Z,17.35
2023-04-26T05:25:09.601Z,17.13
2023-04-26T05:27:38.011Z,17.60
2023-04-26T05:30:08.781Z,13.80
2023-04-26T05:32:39.607Z,16.38
2023-04-26T05:35:09.243Z,16.95
2023-04-26T05:37:40.110Z,20.95
2023-04-26T05:40:09.025Z,13.20
2023-04-26T05:42:37.371Z,15.57
2023-04-26T05:45:04.746Z,13.90
2023-04-26T05:47:31.831Z,14.52
2023-04-26T05:50:01.292Z,12.38
2023-04-26T05:52:30.324Z,12.30
2023-04-26T05:54:57.086Z,14.15
2023-04-26T05:57:24.081Z,12.63
2023-04-26T05:59:50.991Z,13.38
2023-04-26T06:02:17.754Z,17.77
2023-04-26T06:04:46.956Z,13.90
2023-04-26T06:07:14.008Z,17.15
2023-04-26T06:09:41.011Z,16.67
2023-04-26T06:12:10.432Z,10.38
2023-04-26T06:14:39.489Z,10.88
2023-04-26T06:17:06.344Z,11.07
2023-04-26T06:19:33.254Z,11.52
2023-04-26T06:22:00.212Z,12.00
2023-04-26T06:24:27.051Z,15.20
2023-04-26T06:26:54.032Z,11.30
2023-04-26T06:29:21.938Z,15.63
2023-04-26T06:31:48.806Z,12.43
2023-04-26T06:34:17.921Z,15.57
2023-04-26T06:36:47.472Z,10.40
2023-04-26T06:39:14.269Z,10.40
2023-04-26T06:41:41.266Z,12.13
2023-04-26T06:44:10.717Z,10.77
2023-04-26T06:46:39.603Z,12.02
2023-04-26T06:49:09.026Z,11.77
2023-04-26T06:51:38.230Z,9.35
2023-04-26T06:54:07.658Z,9.25
2023-04-26T06:56:34.292Z,10.52
2023-04-26T06:59:05.594Z,14.82
2023-04-26T07:01:33.960Z,11.02
2023-04-26T07:04:04.952Z,10.25
2023-04-26T07:06:34.145Z,12.07
2023-04-26T07:09:02.878Z,13.63
2023-04-26T07:11:29.950Z,15.30
2023-04-26T07:13:59.319Z,11.95
2023-04-26T07:16:27.609Z,14.55
2023-04-26T07:18:58.084Z,9.15
2023-04-26T07:21:26.939Z,17.85
2023-04-26T07:23:57.237Z,12.10
2023-04-26T07:26:25.082Z,10.38
2023-04-26T07:28:52.769Z,10.15
2023-04-26T07:31:22.582Z,8.82
2023-04-26T07:33:51.787Z,12.00
2023-04-26T07:36:22.438Z,11.68
2023-04-26T07:38:50.724Z,9.88
2023-04-26T07:41:17.863Z,8.70
2023-04-26T07:43:46.933Z,11.00
2023-04-26T07:46:13.566Z,10.02
2023-04-26T07:48:42.586Z,9.65
2023-04-26T07:51:12.576Z,8.75
2023-04-26T07:53:40.621Z,7.63
2023-04-26T07:56:08.265Z,5.20
2023-04-26T07:58:36.300Z,10.35
2023-04-26T08:01:05.778Z,8.60
2023-04-26T08:03:33.315Z,7.32
2023-04-26T08:06:00.550Z,9.55
2023-04-26T08:08:27.519Z,5.40
2023-04-26T08:10:54.581Z,8.65
2023-04-26T08:13:23.975Z,6.45
2023-04-26T08:15:53.851Z,5.53
2023-04-26T08:18:20.618Z,6.50
2023-04-26T08:20:47.320Z,6.13
2023-04-26T08:23:14.363Z,5.38
2023-04-26T08:25:43.178Z,4.97
2023-04-26T08:28:09.787Z,8.25
2023-04-26T08:30:38.571Z,3.83
2023-04-26T08:33:07.467Z,7.97
2023-04-26T08:35:34.036Z,8.10
2023-04-26T08:38:01.072Z,7.28
2023-04-26T08:40:27.895Z,10.50
2023-04-26T08:42:54.579Z,7.30
2023-04-26T08:45:21.690Z,5.10
2023-04-26T08:47:58.864Z,6.75
2023-04-26T08:50:27.776Z,4.18
2023-04-26T08:52:54.469Z,7.72
2023-04-26T08:55:21.965Z,4.63
2023-04-26T08:57:50.122Z,5.13
2023-04-26T09:00:18.212Z,4.03
2023-04-26T09:02:51.760Z,3.35
2023-04-26T09:05:26.820Z,6.25
2023-04-26T09:08:06.786Z,4.30
2023-04-26T09:10:33.452Z,3.80
2023-04-26T09:13:00.191Z,10.07
2023-04-26T09:15:28.293Z,4.78
2023-04-26T09:17:57.228Z,7.65
2023-04-26T09:20:23.862Z,2.95
2023-04-26T09:22:54.859Z,5.38
2023-04-26T09:25:31.664Z,4.72
2023-04-26T09:28:02.088Z,7.28
2023-04-26T09:30:38.042Z,3.90
2023-04-26T09:33:06.692Z,4.88
2023-04-26T09:35:35.712Z,6.45
2023-04-26T09:38:13.851Z,3.72
2023-04-26T09:40:51.031Z,2.03
2023-04-26T09:43:18.766Z,4.55
2023-04-26T09:45:57.035Z,5.55
2023-04-26T09:48:26.060Z,3.80
2023-04-26T09:51:19.180Z,1.65
2023-04-26T09:53:47.714Z,3.67
2023-04-26T09:56:23.709Z,8.07
2023-04-26T09:58:58.188Z,2.20
2023-04-26T10:01:26.662Z,3.47
2023-04-26T10:03:53.595Z,5.85
2023-04-26T10:06:20.362Z,7.20
2023-04-26T10:08:47.022Z,2.95
2023-04-26T10:11:14.178Z,6.22
2023-04-26T10:13:41.910Z,10.63
2023-04-26T10:16:12.411Z,6.20
2023-04-26T10:18:39.341Z,2.85
2023-04-26T10:21:28.973Z,5.10
2023-04-26T10:23:59.406Z,10.23
2023-04-26T10:26:57.343Z,3.90
2023-04-26T10:29:25.757Z,7.85
2023-04-26T10:32:04.660Z,11.07
2023-04-26T10:34:35.341Z,5.22
2023-04-26T10:37:08.983Z,5.80
2023-04-26T10:39:36.883Z,4.85
2023-04-26T10:42:26.522Z,9.57
2023-04-26T10:44:57.545Z,7.93
2023-04-26T10:47:30.730Z,10.30
2023-04-26T10:50:15.587Z,7.30
2023-04-26T10:53:02.342Z,7.75
2023-04-26T10:55:39.741Z,5.20
2023-04-26T10:58:32.975Z,7.95
2023-04-26T11:01:16.458Z,3.75
2023-04-26T11:04:04.087Z,5.25
2023-04-26T11:06:51.210Z,5.57
2023-04-26T11:09:41.801Z,6.53
2023-04-26T11:12:13.754Z,5.20
2023-04-26T11:14:45.553Z,5.03
2023-04-26T11:17:15.527Z,5.65
2023-04-26T11:19:42.320Z,8.15
2023-04-26T11:22:11.407Z,4.30
2023-04-26T11:24:39.178Z,8.05
2023-04-26T11:27:10.276Z,5.68
2023-04-26T11:29:37.292Z,5.80
2023-04-26T11:32:04.365Z,4.85
2023-04-26T11:34:39.386Z,5.25
2023-04-26T11:37:08.635Z,7.25
2023-04-26T11:39:37.026Z,4.40
2023-04-26T11:42:11.960Z,3.53
2023-04-26T11:44:40.728Z,10.75
2023-04-26T11:47:10.376Z,7.10
2023-04-26T11:49:37.840Z,6.05
2023-04-26T11:52:06.073Z,8.52
2023-04-26T11:54:35.101Z,7.43
2023-04-26T11:57:14.721Z,6.47
2023-04-26T11:59:48.663Z,6.20
2023-04-26T12:02:15.329Z,6.53
2023-04-26T12:04:42.511Z,6.22
2023-04-26T12:07:09.688Z,5.65
2023-04-26T12:09:42.658Z,4.45
2023-04-26T12:12:09.426Z,6.18
2023-04-26T12:14:36.211Z,4.55
2023-04-26T12:17:04.489Z,7.15
2023-04-26T12:19:38.622Z,8.95
2023-04-26T12:22:07.102Z,7.00
2023-04-26T12:24:36.771Z,5.80
2023-04-26T12:27:07.430Z,4.75
2023-04-26T12:29:34.399Z,4.85
2023-04-26T12:32:04.393Z,8.88
2023-04-26T12:34:33.384Z,5.85
2023-04-26T12:36:59.964Z,8.57
2023-04-26T12:39:28.763Z,5.72
2023-04-26T12:41:57.689Z,8.65
2023-04-26T12:44:24.427Z,6.70
2023-04-26T12:46:51.447Z,10.40
2023-04-26T12:49:18.243Z,8.20
2023-04-26T12:51:44.814Z,5.22
2023-04-26T12:54:11.740Z,7.28
2023-04-26T12:56:44.369Z,7.65
2023-04-26T12:59:11.148Z,6.10
2023-04-26T13:01:37.773Z,7.55
2023-04-26T13:04:05.969Z,8.13
2023-04-26T13:06:33.301Z,8.93
2023-04-26T13:09:00.143Z,8.57
2023-04-26T13:11:29.064Z,6.07
2023-04-26T13:13:55.694Z,6.18
2023-04-26T13:16:24.609Z,11.43
2023-04-26T13:18:51.424Z,8.57
2023-04-26T13:21:20.286Z,5.78
2023-04-26T13:23:47.653Z,7.93
2023-04-26T13:26:15.163Z,7.75
2023-04-26T13:28:41.873Z,7.38
2023-04-26T13:31:08.503Z,5.60
2023-04-26T13:33:35.125Z,10.48
2023-04-26T13:36:01.775Z,6.80
2023-04-26T13:38:32.725Z,9.07
2023-04-26T13:40:59.570Z,8.45
2023-04-26T13:43:26.431Z,8.25
2023-04-26T13:45:55.767Z,5.28
2023-04-26T13:48:22.429Z,6.10
2023-04-26T13:50:49.040Z,5.85
2023-04-26T13:53:15.656Z,10.88
2023-04-26T13:55:42.505Z,6.60
2023-04-26T13:58:11.578Z,5.03
2023-04-26T14:00:40.658Z,9.00
2023-04-26T14:03:09.809Z,7.55
2023-04-26T14:05:36.674Z,4.10
2023-04-26T14:08:03.371Z,8.25
2023-04-26T14:10:32.955Z,14.43
2023-04-26T14:12:59.553Z,8.65
2023-04-26T14:15:30.958Z,6.32
2023-04-26T14:17:57.637Z,5.60
2023-04-26T14:20:24.268Z,5.20
2023-04-26T14:22:53.109Z,5.30
2023-04-26T14:25:20.110Z,5.40
2023-04-26T14:27:48.889Z,10.68
2023-04-26T14:30:15.697Z,6.63
2023-04-26T14:32:45.496Z,6.63
2023-04-26T14:35:14.623Z,7.50
2023-04-26T14:37:41.177Z,4.97
2023-04-26T14:40:08.533Z,5.60
2023-04-26T14:42:35.892Z,11.48
2023-04-26T14:45:04.940Z,7.53
2023-04-26T14:47:34.619Z,7.20
2023-04-26T14:50:01.437Z,4.10
2023-04-26T14:52:29.107Z,5.43
2023-04-26T14:54:55.762Z,9.98
2023-04-26T14:57:24.855Z,6.88
2023-04-26T14:59:51.440Z,9.18
2023-04-26T15:02:18.132Z,6.70
2023-04-26T15:04:47.918Z,4.25
2023-04-26T15:07:28.714Z,4.47
2023-04-26T15:10:01.799Z,9.85
2023-04-26T15:12:28.866Z,4.57
2023-04-26T15:14:56.275Z,7.13
2023-04-26T15:17:22.957Z,5.93
2023-04-26T15:19:51.909Z,6.78
2023-04-26T15:22:23.468Z,4.97
2023-04-26T15:24:51.147Z,6.68
2023-04-26T15:27:17.905Z,6.50
2023-04-26T15:29:44.641Z,6.65
2023-04-26T15:32:13.713Z,13.52
2023-04-26T15:34:43.516Z,5.28
2023-04-26T15:37:13.158Z,7.85
2023-04-26T15:39:39.797Z,5.35
2023-04-26T15:42:06.624Z,6.25
2023-04-26T15:44:33.474Z,6.25
2023-04-26T15:47:02.595Z,7.20
2023-04-26T15:49:31.823Z,5.35
2023-04-26T15:51:58.710Z,4.05
2023-04-26T15:54:26.508Z,3.83
2023-04-26T15:56:53.560Z,7.85
2023-04-26T15:59:20.338Z,4.60
2023-04-26T16:01:47.026Z,5.40
2023-04-26T16:04:14.251Z,7.75
2023-04-26T16:06:41.248Z,8.43
2023-04-26T16:09:23.947Z,6.22
2023-04-26T16:11:52.308Z,8.75
2023-04-26T16:14:18.979Z,5.30
2023-04-26T16:16:46.224Z,4.82
2023-04-26T16:19:13.022Z,7.88
2023-04-26T16:21:40.845Z,7.03
2023-04-26T16:24:11.625Z,6.32
2023-04-26T16:26:38.440Z,4.97
2023-04-26T16:29:07.637Z,8.15
2023-04-26T16:31:36.836Z,6.57
2023-04-26T16:34:03.457Z,7.90
2023-04-26T16:36:33.005Z,6.03
2023-04-26T16:39:02.070Z,7.25
2023-04-26T16:41:29.075Z,5.18
2023-04-26T16:43:56.094Z,7.47
2023-04-26T16:46:25.101Z,5.32
2023-04-26T16:48:52.081Z,6.88
2023-04-26T16:51:18.698Z,7.47
2023-04-26T16:53:47.329Z,6.18
2023-04-26T16:56:13.900Z,7.32
2023-04-26T16:58:40.477Z,11.02
2023-04-26T17:01:09.430Z,6.40
2023-04-26T17:03:38.567Z,5.45
2023-04-26T17:06:06.955Z,6.40
2023-04-26T17:08:33.678Z,6.30
2023-04-26T17:11:00.235Z,9.30
2023-04-26T17:13:29.466Z,6.13
2023-04-26T17:15:59.419Z,6.18
2023-04-26T17:18:26.166Z,6.10
2023-04-26T17:20:57.776Z,10.65
2023-04-26T17:23:24.739Z,6.13
2023-04-26T17:25:56.070Z,8.27
2023-04-26T17:28:22.676Z,8.93
2023-04-26T17:30:49.273Z,10.40
2023-04-26T17:33:15.908Z,5.32
2023-04-26T17:35:42.497Z,7.85
2023-04-26T17:38:09.152Z,8.68
2023-04-26T17:40:38.438Z,6.30
2023-04-26T17:43:05.017Z,6.03
2023-04-26T17:45:31.740Z,7.40
2023-04-26T17:47:58.491Z,6.03
2023-04-26T17:50:25.613Z,5.50
2023-04-26T17:52:52.230Z,6.45
2023-04-26T17:55:18.940Z,6.03
2023-04-26T17:57:45.529Z,7.80
2023-04-26T18:00:15.796Z,6.53
2023-04-26T18:02:43.197Z,14.20
2023-04-26T18:05:10.272Z,5.85
2023-04-26T18:07:36.978Z,10.13
2023-04-26T18:10:04.254Z,8.95
2023-04-26T18:12:32.012Z,8.82
2023-04-26T18:14:58.977Z,5.53
2023-04-26T18:17:25.813Z,6.30
2023-04-26T18:19:52.623Z,9.38
2023-04-26T18:22:21.553Z,7.47
2023-04-26T18:24:48.160Z,10.90
2023-04-26T18:27:15.124Z,9.43
2023-04-26T18:29:43.217Z,8.00
2023-04-26T18:32:10.949Z,10.18
2023-04-26T18:34:40.234Z,7.05
2023-04-26T18:37:07.860Z,9.02
2023-04-26T18:39:36.696Z,9.25
2023-04-26T18:42:03.932Z,6.80
2023-04-26T18:44:30.672Z,8.43
2023-04-26T18:46:57.300Z,9.93
2023-04-26T18:49:26.368Z,9.60
2023-04-26T18:51:57.343Z,7.70
2023-04-26T18:54:26.753Z,10.02
2023-04-26T18:56:54.112Z,5.85
2023-04-26T18:59:20.927Z,9.45
2023-04-26T19:01:49.310Z,18.55
2023-04-26T19:04:16.334Z,7.75
2023-04-26T19:06:43.029Z,12.27
2023-04-26T19:09:11.903Z,11.70
2023-04-26T19:11:38.841Z,10.85
2023-04-26T19:14:05.748Z,8.45
2023-04-26T19:16:32.433Z,9.73
2023-04-26T19:18:59.210Z,10.38
2023-04-26T19:21:28.046Z,13.23
2023-04-26T19:23:56.692Z,9.10
2023-04-26T19:26:23.315Z,9.73
2023-04-26T19:28:49.955Z,8.40
2023-04-26T19:31:19.872Z,6.88
2023-04-26T19:33:46.523Z,9.23
2023-04-26T19:36:13.148Z,6.60
2023-04-26T19:38:39.812Z,6.28
2023-04-26T19:41:06.433Z,6.68
2023-04-26T19:43:36.126Z,9.93
2023-04-26T19:46:11.571Z,6.43
2023-04-26T19:48:41.193Z,7.47
2023-04-26T19:51:07.746Z,5.75
2023-04-26T19:53:35.294Z,6.90
2023-04-26T19:56:04.469Z,8.73
2023-04-26T19:58:32.444Z,8.52
2023-04-26T20:00:59.040Z,7.03
2023-04-26T20:03:26.108Z,5.90
2023-04-26T20:05:55.134Z,6.82
2023-04-26T20:08:24.057Z,9.50
2023-04-26T20:10:51.150Z,5.82
2023-04-26T20:13:18.066Z,8.35
2023-04-26T20:15:45.323Z,7.32
2023-04-26T20:18:16.951Z,7.47
2023-04-26T20:20:44.407Z,8.05
2023-04-26T20:23:11.657Z,10.20
2023-04-26T20:25:41.151Z,7.45
2023-04-26T20:28:08.169Z,8.75
2023-04-26T20:30:35.440Z,10.25
2023-04-26T20:33:04.578Z,6.18
2023-04-26T20:35:31.604Z,11.82
2023-04-26T20:37:58.675Z,9.20
2023-04-26T20:40:26.449Z,11.68
2023-04-26T20:42:53.751Z,12.45
2023-04-26T20:45:20.804Z,10.38
2023-04-26T20:47:48.027Z,11.80
2023-04-26T20:50:15.186Z,17.42
2023-04-26T20:52:46.693Z,14.85
2023-04-26T20:55:14.042Z,13.45
2023-04-26T20:57:41.938Z,10.00
2023-04-26T21:00:10.793Z,12.13
2023-04-26T21:02:41.136Z,14.82
2023-04-26T21:05:10.829Z,19.80
2023-04-26T21:07:37.776Z,14.60
2023-04-26T21:10:07.846Z,16.40
2023-04-26T21:12:37.704Z,12.18
2023-04-26T21:15:05.394Z,15.40
2023-04-26T21:17:35.535Z,12.82
2023-04-26T21:20:05.317Z,15.45
2023-04-26T21:22:32.482Z,15.05
2023-04-26T21:25:00.023Z,15.38
2023-04-26T21:27:27.206Z,14.15
2023-04-26T21:30:05.167Z,12.02
2023-04-26T21:32:32.208Z,10.77
2023-04-26T21:34:59.489Z,12.63
2023-04-26T21:37:26.505Z,12.02
2023-04-26T21:39:57.277Z,11.63
2023-04-26T21:42:25.199Z,12.75
2023-04-26T21:44:52.191Z,16.48
2023-04-26T21:47:20.110Z,12.65
2023-04-26T21:49:47.049Z,13.27
2023-04-26T21:52:14.096Z,16.30
2023-04-26T21:54:41.307Z,17.40
2023-04-26T21:57:15.527Z,17.05
2023-04-26T21:59:44.907Z,15.65
2023-04-26T22:02:11.933Z,13.52
2023-04-26T22:04:40.140Z,10.88
2023-04-26T22:07:11.022Z,11.05
2023-04-26T22:09:38.184Z,14.55
2023-04-26T22:12:07.386Z,11.85
2023-04-26T22:14:34.416Z,12.35
2023-04-26T22:17:02.329Z,15.65
2023-04-26T22:19:31.672Z,17.98
2023-04-26T22:22:01.410Z,19.70
2023-04-26T22:24:28.436Z,18.50
2023-04-26T22:26:55.289Z,18.55
2023-04-26T22:29:22.201Z,25.45
2023-04-26T22:31:49.112Z,23.38
2023-04-26T22:34:23.736Z,36.90
2023-04-26T22:36:50.592Z,63.63
2023-04-26T22:39:17.452Z,65.10
2023-04-26T22:41:44.288Z,74.65
2023-04-26T22:44:11.501Z,75.70
2023-04-26T22:46:38.253Z,66.07
2023-04-26T22:49:05.164Z,60.47
2023-04-26T22:51:32.629Z,55.78
2023-04-26T22:54:01.060Z,49.00
2023-04-26T22:56:27.982Z,44.73
2023-04-26T22:58:54.735Z,33.20
2023-04-26T23:01:21.738Z,32.27
2023-04-26T23:03:48.725Z,35.50
2023-04-26T23:06:17.822Z,29.47
2023-04-26T23:08:47.407Z,24.17
2023-04-26T23:11:14.391Z,23.87
2023-04-26T23:13:41.438Z,24.60
2023-04-26T23:16:11.563Z,27.60
2023-04-26T23:18:38.622Z,28.63
2023-04-26T23:21:11.570Z,30.83
2023-04-26T23:23:38.725Z,32.17
2023-04-26T23:26:08.811Z,27.23
2023-04-26T23:28:35.701Z,17.97
2023-04-26T23:31:02.670Z,21.13
2023-04-26T23:33:30.005Z,17.13
2023-04-26T23:35:59.474Z,13.53
2023-04-26T23:38:26.624Z,11.47
2023-04-26T23:40:53.912Z,15.77
2023-04-26T23:43:20.921Z,18.23
2023-04-26T23:45:53.085Z,20.93
2023-04-26T23:48:22.595Z,25.33
2023-04-26T23:50:49.643Z,16.43
2023-04-26T23:53:19.132Z,15.83
2023-04-26T23:55:46.433Z,16.60
2023-04-26T23:58:13.522Z,18.57
